Time;durP1;ratioP1;P1;durP2;ratioP2;P2;SDS_P1;SDS_P2;PMS_P1;PMS_P2;Temp;Humidity;BMP_temperature;BMP_pressure;BME280_temperature;BME280_humidity;BME280_pressure;Samples;Min_cycle;Max_cycle;Signal;HPM_P1;HPM_P2
2023/07/15 00:01:44;;;;;;;3.22;2.65;;;;;;;;;;5017287;28;20030;-91
2023/07/15 00:04:13;;;;;;;3.05;2.75;;;;;;;;;;5019044;28;20030;-90
2023/07/15 00:06:40;;;;;;;3.65;2.80;;;;;;;;;;5019139;28;20035;-93
2023/07/15 00:09:09;;;;;;;3.28;2.50;;;;;;;;;;5019655;28;20043;-91
2023/07/15 00:11:41;;;;;;;6.35;3.35;;;;;;;;;;5012480;28;20048;-91
2023/07/15 00:14:15;;;;;;;5.25;3.47;;;;;;;;;;5035506;28;20046;-91
2023/07/15 00:16:42;;;;;;;3.53;2.75;;;;;;;;;;5018922;28;20026;-90
2023/07/15 00:19:10;;;;;;;4.72;3.25;;;;;;;;;;5019622;28;20030;-91
2023/07/15 00:21:37;;;;;;;4.25;3.55;;;;;;;;;;5019003;28;20038;-91
2023/07/15 00:24:06;;;;;;;3.75;2.90;;;;;;;;;;5019442;28;20033;-92
2023/07/15 00:26:34;;;;;;;4.38;3.83;;;;;;;;;;5019203;28;20049;-90
2023/07/15 00:29:04;;;;;;;9.85;3.47;;;;;;;;;;5020279;28;20030;-91
2023/07/15 00:31:36;;;;;;;3.33;2.88;;;;;;;;;;5018856;28;20034;-92
2023/07/15 00:34:04;;;;;;;3.47;3.08;;;;;;;;;;5019120;28;20030;-91
2023/07/15 00:36:35;;;;;;;3.95;2.92;;;;;;;;;;5034277;28;20049;-93
2023/07/15 00:39:05;;;;;;;3.05;2.78;;;;;;;;;;5020007;28;20067;-93
2023/07/15 00:41:34;;;;;;;3.85;3.05;;;;;;;;;;5014466;28;20044;-92
2023/07/15 00:44:03;;;;;;;3.53;2.30;;;;;;;;;;5035357;28;20027;-92
2023/07/15 00:46:47;;;;;;;5.28;2.97;;;;;;;;;;5020252;28;20172;-91
2023/07/15 00:49:17;;;;;;;3.80;2.95;;;;;;;;;;5015259;28;20038;-91
2023/07/15 00:51:47;;;;;;;4.63;3.50;;;;;;;;;;5024315;28;20050;-92
2023/07/15 00:54:15;;;;;;;3.58;3.28;;;;;;;;;;5011088;28;20034;-91
2023/07/15 00:56:44;;;;;;;3.95;2.90;;;;;;;;;;5034186;28;20034;-93
2023/07/15 00:59:15;;;;;;;3.28;2.97;;;;;;;;;;5011040;28;20041;-92
2023/07/15 01:01:47;;;;;;;3.33;2.83;;;;;;;;;;5011737;28;20328;-92
2023/07/15 01:04:15;;;;;;;3.85;3.03;;;;;;;;;;5015522;28;20044;-91
2023/07/15 01:06:45;;;;;;;6.25;3.50;;;;;;;;;;5034177;28;20044;-91
2023/07/15 01:09:13;;;;;;;4.53;3.40;;;;;;;;;;4998295;28;20034;-91
2023/07/15 01:11:41;;;;;;;3.15;2.80;;;;;;;;;;5017917;28;20038;-93
2023/07/15 01:14:12;;;;;;;6.72;2.97;;;;;;;;;;5017655;28;20044;-91
2023/07/15 01:16:41;;;;;;;4.70;2.70;;;;;;;;;;5001067;28;20041;-91
2023/07/15 01:19:10;;;;;;;5.53;2.55;;;;;;;;;;5018504;28;20052;-92
2023/07/15 01:21:37;;;;;;;3.38;3.03;;;;;;;;;;5018149;28;20034;-91
2023/07/15 01:24:08;;;;;;;5.47;3.17;;;;;;;;;;5017706;28;20037;-91
2023/07/15 01:26:36;;;;;;;4.53;3.58;;;;;;;;;;5032736;28;20044;-92
2023/07/15 01:29:03;;;;;;;3.78;2.95;;;;;;;;;;5002031;28;20036;-92
2023/07/15 01:31:31;;;;;;;5.07;4.13;;;;;;;;;;5001267;28;20042;-91
2023/07/15 01:34:00;;;;;;;4.05;3.65;;;;;;;;;;5018306;28;20034;-91
2023/07/15 01:36:28;;;;;;;4.47;3.15;;;;;;;;;;4999489;28;20039;-91
2023/07/15 01:38:55;;;;;;;5.18;2.75;;;;;;;;;;5018164;28;20032;-91
2023/07/15 01:41:29;;;;;;;3.83;3.53;;;;;;;;;;5001582;28;20041;-91
2023/07/15 01:43:57;;;;;;;3.13;2.83;;;;;;;;;;5017127;28;20046;-91
2023/07/15 01:46:29;;;;;;;3.78;2.75;;;;;;;;;;5017239;28;20038;-91
2023/07/15 01:48:59;;;;;;;3.17;2.88;;;;;;;;;;5000688;28;20041;-90
2023/07/15 01:51:31;;;;;;;3.38;2.95;;;;;;;;;;5017350;28;20037;-92
2023/07/15 01:53:59;;;;;;;3.05;2.58;;;;;;;;;;5017767;28;20242;-92
2023/07/15 01:56:31;;;;;;;4.30;3.63;;;;;;;;;;5016734;28;20038;-91
2023/07/15 01:59:00;;;;;;;2.78;2.45;;;;;;;;;;5032824;28;20037;-90
2023/07/15 02:01:31;;;;;;;3.38;2.65;;;;;;;;;;5016593;28;20046;-91
2023/07/15 02:04:02;;;;;;;3.72;2.80;;;;;;;;;;5032826;28;20026;-90
2023/07/15 02:06:30;;;;;;;3.40;2.90;;;;;;;;;;5015980;28;20038;-91
2023/07/15 02:08:58;;;;;;;3.58;2.80;;;;;;;;;;5001406;28;20029;-92
2023/07/15 02:11:28;;;;;;;3.35;3.03;;;;;;;;;;5017233;28;20034;-90
2023/07/15 02:13:56;;;;;;;6.55;3.17;;;;;;;;;;5017014;28;20023;-92
2023/07/15 02:16:24;;;;;;;5.25;3.08;;;;;;;;;;4999758;28;20038;-91
2023/07/15 02:22:47;;;;;;;3.65;3.22;;;;;;;;;;5015627;28;20041;-91
2023/07/15 02:25:14;;;;;;;4.50;3.45;;;;;;;;;;5007999;28;20065;-90
2023/07/15 02:27:44;;;;;;;5.72;4.15;;;;;;;;;;5031514;28;20051;-91
2023/07/15 02:30:19;;;;;;;3.42;3.08;;;;;;;;;;5016835;28;20038;-91
2023/07/15 02:32:47;;;;;;;3.50;3.20;;;;;;;;;;5015648;28;20030;-91
2023/07/15 02:35:15;;;;;;;3.65;2.78;;;;;;;;;;5016200;28;20045;-91
2023/07/15 02:37:45;;;;;;;4.13;3.17;;;;;;;;;;5014250;28;20101;-91
2023/07/15 02:40:13;;;;;;;5.20;3.60;;;;;;;;;;5016755;28;20041;-90
2023/07/15 02:42:40;;;;;;;4.00;3.60;;;;;;;;;;5033079;28;20056;-91
2023/07/15 02:45:09;;;;;;;4.07;3.10;;;;;;;;;;5016724;28;20040;-90
2023/07/15 02:47:39;;;;;;;5.07;3.05;;;;;;;;;;5016853;28;20026;-90
2023/07/15 02:50:12;;;;;;;3.53;3.22;;;;;;;;;;5016013;28;20040;-92
2023/07/15 02:52:41;;;;;;;3.35;2.70;;;;;;;;;;5016667;28;20030;-91
2023/07/15 02:55:09;;;;;;;4.28;2.92;;;;;;;;;;5015287;28;20049;-91
2023/07/15 02:57:39;;;;;;;4.38;3.97;;;;;;;;;;5014048;28;20038;-92
2023/07/15 03:00:12;;;;;;;3.80;3.50;;;;;;;;;;5017098;28;20034;-92
2023/07/15 03:02:47;;;;;;;3.78;3.47;;;;;;;;;;5014530;28;20026;-91
2023/07/15 03:05:15;;;;;;;3.65;3.35;;;;;;;;;;5015378;28;20052;-91
2023/07/15 03:07:47;;;;;;;4.85;3.30;;;;;;;;;;5015775;28;20052;-91
2023/07/15 03:10:15;;;;;;;3.30;3.00;;;;;;;;;;5015967;28;20044;-91
2023/07/15 03:12:43;;;;;;;4.63;4.13;;;;;;;;;;4999880;28;20116;-91
2023/07/15 03:15:11;;;;;;;4.43;3.97;;;;;;;;;;5016037;28;20034;-91
2023/07/15 03:17:40;;;;;;;4.80;2.95;;;;;;;;;;5011163;28;20043;-90
2023/07/15 03:20:14;;;;;;;4.95;3.40;;;;;;;;;;5016589;28;20032;-91
2023/07/15 03:22:42;;;;;;;4.10;3.50;;;;;;;;;;5014733;28;20039;-92
2023/07/15 03:25:12;;;;;;;5.47;3.63;;;;;;;;;;5015712;28;20046;-92
2023/07/15 03:27:39;;;;;;;4.72;3.10;;;;;;;;;;5015913;28;20041;-92
2023/07/15 03:30:10;;;;;;;3.97;3.58;;;;;;;;;;5015969;28;21018;-92
2023/07/15 03:32:38;;;;;;;3.13;2.85;;;;;;;;;;4999981;28;20034;-91
2023/07/15 03:35:12;;;;;;;3.50;3.17;;;;;;;;;;5016698;28;20118;-91
2023/07/15 03:37:42;;;;;;;3.88;3.47;;;;;;;;;;5019382;28;20034;-92
2023/07/15 03:40:14;;;;;;;4.53;3.72;;;;;;;;;;5020603;28;20034;-92
2023/07/15 03:42:44;;;;;;;3.53;3.00;;;;;;;;;;5020312;28;20031;-91
2023/07/15 03:45:12;;;;;;;4.53;3.58;;;;;;;;;;5019524;28;20044;-92
2023/07/15 03:47:41;;;;;;;4.82;3.00;;;;;;;;;;5019226;28;20126;-93
2023/07/15 03:50:20;;;;;;;3.58;2.88;;;;;;;;;;5019954;28;20027;-94
2023/07/15 03:52:50;;;;;;;4.20;3.80;;;;;;;;;;5019915;28;20927;-93
2023/07/15 03:55:17;;;;;;;4.80;3.10;;;;;;;;;;5019245;28;20036;-91
2023/07/15 03:57:45;;;;;;;5.28;4.07;;;;;;;;;;5019091;28;20068;-92
2023/07/15 04:00:17;;;;;;;8.63;3.22;;;;;;;;;;5019161;28;20041;-92
2023/07/15 04:02:48;;;;;;;4.88;3.58;;;;;;;;;;5018945;28;20034;-91
2023/07/15 04:05:19;;;;;;;4.03;3.42;;;;;;;;;;5019583;28;20332;-93
2023/07/15 04:07:47;;;;;;;4.03;3.38;;;;;;;;;;5017686;28;20041;-91
2023/07/15 04:10:16;;;;;;;3.55;3.15;;;;;;;;;;5035086;28;20038;-92
2023/07/15 04:12:43;;;;;;;3.45;3.15;;;;;;;;;;5019106;28;20046;-91
2023/07/15 04:15:11;;;;;;;5.70;3.22;;;;;;;;;;5018276;28;20209;-91
2023/07/15 04:17:40;;;;;;;3.55;3.15;;;;;;;;;;5017564;28;20053;-91
2023/07/15 04:20:14;;;;;;;4.70;3.38;;;;;;;;;;5014486;28;20038;-92
2023/07/15 04:22:42;;;;;;;4.88;2.95;;;;;;;;;;5019000;28;20050;-92
2023/07/15 04:25:14;;;;;;;6.20;3.53;;;;;;;;;;5010638;28;20030;-92
2023/07/15 04:27:42;;;;;;;5.70;3.38;;;;;;;;;;5017879;28;21508;-91
2023/07/15 04:30:10;;;;;;;3.83;3.40;;;;;;;;;;5017192;28;20040;-91
2023/07/15 04:32:42;;;;;;;4.20;3.58;;;;;;;;;;5019114;28;20042;-91
2023/07/15 04:35:13;;;;;;;3.72;3.42;;;;;;;;;;5019232;28;20037;-92
2023/07/15 04:37:41;;;;;;;5.50;3.97;;;;;;;;;;5019647;28;20044;-91
2023/07/15 04:40:11;;;;;;;3.50;3.20;;;;;;;;;;5018071;28;20034;-92
2023/07/15 04:42:41;;;;;;;3.53;3.22;;;;;;;;;;5017972;28;20041;-90
2023/07/15 04:45:13;;;;;;;4.03;3.70;;;;;;;;;;5019467;28;20038;-92
2023/07/15 04:47:41;;;;;;;4.30;3.05;;;;;;;;;;5019035;28;20139;-92
2023/07/15 04:50:13;;;;;;;4.47;3.63;;;;;;;;;;5034147;28;20033;-91
2023/07/15 04:52:44;;;;;;;3.47;3.17;;;;;;;;;;5018348;28;20030;-91
2023/07/15 04:55:18;;;;;;;4.05;3.65;;;;;;;;;;5019269;28;20030;-90
2023/07/15 04:57:45;;;;;;;3.47;3.17;;;;;;;;;;5017879;28;20023;-91
2023/07/15 05:00:16;;;;;;;4.13;3.33;;;;;;;;;;5015990;28;20038;-93
2023/07/15 05:02:44;;;;;;;3.10;2.80;;;;;;;;;;5020009;28;20038;-91
2023/07/15 05:05:12;;;;;;;3.28;2.72;;;;;;;;;;5017226;28;20038;-92
2023/07/15 05:07:39;;;;;;;3.67;3.20;;;;;;;;;;5009781;28;20060;-94
2023/07/15 05:10:10;;;;;;;5.68;3.00;;;;;;;;;;5000235;28;20411;-90
2023/07/15 05:12:38;;;;;;;2.97;2.72;;;;;;;;;;5007218;28;20053;-91
2023/07/15 05:15:06;;;;;;;4.07;2.88;;;;;;;;;;4992665;28;20057;-92
2023/07/15 05:17:34;;;;;;;3.80;2.75;;;;;;;;;;4993094;28;20042;-90
2023/07/15 05:20:06;;;;;;;3.35;3.05;;;;;;;;;;4989189;28;20047;-92
2023/07/15 05:22:33;;;;;;;2.50;2.30;;;;;;;;;;4989272;28;20042;-91
2023/07/15 05:25:04;;;;;;;3.88;2.80;;;;;;;;;;5006791;28;20042;-90
2023/07/15 05:27:34;;;;;;;7.40;3.22;;;;;;;;;;5007931;28;20058;-91
2023/07/15 05:30:04;;;;;;;4.07;2.70;;;;;;;;;;4993921;28;20045;-91
2023/07/15 05:32:32;;;;;;;3.15;2.95;;;;;;;;;;4993358;28;20050;-91
2023/07/15 05:34:59;;;;;;;3.88;2.42;;;;;;;;;;4996959;28;20054;-91
2023/07/15 05:37:27;;;;;;;2.63;2.30;;;;;;;;;;5004303;28;20055;-90
2023/07/15 05:39:54;;;;;;;2.53;2.33;;;;;;;;;;5013620;28;20053;-90
2023/07/15 05:42:21;;;;;;;2.60;2.40;;;;;;;;;;5033391;28;20048;-91
2023/07/15 05:44:55;;;;;;;4.82;2.67;;;;;;;;;;5007037;28;20063;-92
2023/07/15 05:47:22;;;;;;;3.10;2.90;;;;;;;;;;4993828;28;20050;-90
2023/07/15 05:49:50;;;;;;;3.95;2.50;;;;;;;;;;4990574;28;20066;-91
2023/07/15 05:52:17;;;;;;;3.13;2.83;;;;;;;;;;4995785;28;20057;-92
2023/07/15 05:54:47;;;;;;;4.20;2.90;;;;;;;;;;4973461;28;20054;-93
2023/07/15 05:57:14;;;;;;;3.25;2.95;;;;;;;;;;4981029;28;20054;-92
2023/07/15 05:59:44;;;;;;;4.30;2.80;;;;;;;;;;4996246;28;20057;-92
2023/07/15 06:02:13;;;;;;;3.65;3.35;;;;;;;;;;5014478;28;20050;-92
2023/07/15 06:04:40;;;;;;;3.33;2.58;;;;;;;;;;4992142;28;20066;-94
2023/07/15 06:07:10;;;;;;;4.28;2.80;;;;;;;;;;4996228;28;20050;-92
2023/07/15 06:09:40;;;;;;;3.25;2.90;;;;;;;;;;4998872;28;20617;-92
2023/07/15 06:12:10;;;;;;;3.97;2.75;;;;;;;;;;5001914;28;20050;-93
2023/07/15 06:14:40;;;;;;;3.97;3.47;;;;;;;;;;5004795;28;20058;-92
2023/07/15 06:17:07;;;;;;;2.50;2.30;;;;;;;;;;4992857;28;20051;-92
2023/07/15 06:19:41;;;;;;;3.30;2.83;;;;;;;;;;5006815;28;20050;-92
2023/07/15 06:22:08;;;;;;;3.65;2.55;;;;;;;;;;5007188;28;20042;-92
2023/07/15 06:24:36;;;;;;;4.82;3.05;;;;;;;;;;4999523;28;20057;-94
2023/07/15 06:27:03;;;;;;;3.10;2.80;;;;;;;;;;5009883;28;20060;-92
2023/07/15 06:29:33;;;;;;;2.15;1.80;;;;;;;;;;5005989;28;20058;-93
2023/07/15 06:32:02;;;;;;;3.70;2.92;;;;;;;;;;5002351;28;20074;-93
2023/07/15 06:34:32;;;;;;;2.70;2.50;;;;;;;;;;4989860;28;20046;-94
2023/07/15 06:37:04;;;;;;;2.47;2.22;;;;;;;;;;5010196;28;20052;-93
2023/07/15 06:39:34;;;;;;;4.28;2.55;;;;;;;;;;4994080;28;20266;-93
2023/07/15 06:42:01;;;;;;;3.17;2.88;;;;;;;;;;5008748;28;20060;-93
2023/07/15 06:44:29;;;;;;;2.75;2.38;;;;;;;;;;5003534;28;20053;-93
2023/07/15 06:46:59;;;;;;;3.92;2.80;;;;;;;;;;5005026;28;20057;-93
2023/07/15 06:49:29;;;;;;;4.00;2.83;;;;;;;;;;5002591;28;20051;-92
2023/07/15 06:52:04;;;;;;;;;;;;;;;;;;5002921;28;20065;-94
2023/07/15 06:54:33;;;;;;;3.25;2.85;;;;;;;;;;4995261;28;19948;-92
2023/07/15 06:57:00;;;;;;;2.88;2.20;;;;;;;;;;5000589;28;20053;-92
2023/07/15 06:59:28;;;;;;;3.08;2.63;;;;;;;;;;4987457;28;20050;-93
2023/07/15 07:01:55;;;;;;;2.75;2.47;;;;;;;;;;4999668;28;20054;-93
2023/07/15 07:04:23;;;;;;;2.55;2.25;;;;;;;;;;4999312;28;20422;-93
2023/07/15 07:06:50;;;;;;;3.78;2.65;;;;;;;;;;5002170;28;20046;-93
2023/07/15 07:09:21;;;;;;;2.60;2.40;;;;;;;;;;4990289;28;20062;-94
2023/07/15 07:11:49;;;;;;;2.97;2.67;;;;;;;;;;4991130;28;20046;-93
2023/07/15 07:14:22;;;;;;;3.05;2.70;;;;;;;;;;5005701;28;20046;-91
2023/07/15 07:16:51;;;;;;;2.92;2.60;;;;;;;;;;5030435;28;20031;-92
2023/07/15 07:19:22;;;;;;;3.10;2.42;;;;;;;;;;5014941;28;20050;-92
2023/07/15 07:21:53;;;;;;;3.00;2.15;;;;;;;;;;5010831;28;20060;-91
2023/07/15 07:24:43;;;;;;;2.33;2.13;;;;;;;;;;4996666;28;20050;-92
2023/07/15 07:27:17;;;;;;;2.60;2.40;;;;;;;;;;4998650;28;20050;-91
2023/07/15 07:29:48;;;;;;;3.38;2.70;;;;;;;;;;4992911;28;20050;-90
2023/07/15 07:32:20;;;;;;;6.05;3.05;;;;;;;;;;4988245;28;20046;-92
2023/07/15 07:34:48;;;;;;;2.55;2.35;;;;;;;;;;4993138;28;20054;-92
2023/07/15 07:40:37;;;;;;;2.97;2.50;;;;;;;;;;5010225;28;20054;-92
2023/07/15 07:43:08;;;;;;;3.60;2.30;;;;;;;;;;5012019;28;20057;-93
2023/07/15 07:45:41;;;;;;;4.75;2.38;;;;;;;;;;5006595;28;20474;-92
2023/07/15 07:48:30;;;;;;;3.67;2.60;;;;;;;;;;5025005;28;20049;-92
2023/07/15 07:51:14;;;;;;;3.40;2.65;;;;;;;;;;5007523;28;20030;-92
2023/07/15 07:53:44;;;;;;;3.15;2.72;;;;;;;;;;5026681;28;20031;-94
2023/07/15 07:56:42;;;;;;;2.58;2.38;;;;;;;;;;5015483;28;20032;-94
2023/07/15 07:59:18;;;;;;;3.25;2.33;;;;;;;;;;5002830;28;20046;-92
2023/07/15 08:01:56;;;;;;;2.30;2.10;;;;;;;;;;5013675;28;20043;-93
2023/07/15 08:04:25;;;;;;;2.45;2.25;;;;;;;;;;5014107;28;20031;-94
2023/07/15 08:06:56;;;;;;;2.50;2.30;;;;;;;;;;5015105;28;20044;-92
2023/07/15 08:09:33;;;;;;;3.22;2.97;;;;;;;;;;5016372;28;20038;-93
2023/07/15 08:12:04;;;;;;;3.30;2.80;;;;;;;;;;5014126;28;20037;-92
2023/07/15 08:14:36;;;;;;;3.88;2.70;;;;;;;;;;5031377;28;20041;-93
2023/07/15 08:17:17;;;;;;;2.42;2.22;;;;;;;;;;5015715;28;20030;-94
2023/07/15 08:19:45;;;;;;;4.68;2.80;;;;;;;;;;5012761;28;20050;-93
2023/07/15 08:22:21;;;;;;;3.10;2.50;;;;;;;;;;5016945;28;20064;-94
2023/07/15 08:24:56;;;;;;;3.85;2.53;;;;;;;;;;5020920;28;20040;-94
2023/07/15 09:54:34;;;;;;;4.82;2.13;;;;;;;;;;5786812;23;20047;-77
2023/07/15 09:57:06;;;;;;;3.00;2.55;;;;;;;;;;4956560;28;20523;-77
2023/07/15 10:50:39;;;;;;;2.72;2.03;;;;;;;;;;5613615;23;20040;-93
2023/07/15 10:53:23;;;;;;;2.80;2.38;;;;;;;;;;5009598;28;20048;-94
2023/07/15 10:56:01;;;;;;;2.53;2.20;;;;;;;;;;4990364;28;20068;-94
2023/07/15 10:58:32;;;;;;;3.88;2.53;;;;;;;;;;5007379;28;20051;-92
2023/07/15 11:01:00;;;;;;;2.95;2.22;;;;;;;;;;5006987;28;20026;-92
2023/07/15 11:03:33;;;;;;;2.70;2.50;;;;;;;;;;4999095;28;20042;-90
2023/07/15 11:06:05;;;;;;;2.05;1.85;;;;;;;;;;4997844;28;20042;-92
2023/07/15 11:08:35;;;;;;;3.53;2.42;;;;;;;;;;4993183;28;20454;-93
2023/07/15 11:11:07;;;;;;;4.38;3.00;;;;;;;;;;4984527;28;20035;-92
2023/07/15 11:13:38;;;;;;;3.30;3.00;;;;;;;;;;4982250;28;20041;-94
2023/07/15 11:16:06;;;;;;;3.35;2.58;;;;;;;;;;4986944;28;20054;-93
2023/07/15 11:18:36;;;;;;;5.82;2.10;;;;;;;;;;4979261;28;20054;-92
2023/07/15 11:21:06;;;;;;;2.83;2.20;;;;;;;;;;4979394;28;20034;-94
2023/07/15 11:23:33;;;;;;;3.08;2.13;;;;;;;;;;4959966;28;20058;-92
2023/07/15 11:26:10;;;;;;;3.50;2.92;;;;;;;;;;4990570;28;20056;-91
2023/07/15 11:28:48;;;;;;;3.45;2.20;;;;;;;;;;4982940;28;20048;-93
2023/07/15 11:31:15;;;;;;;2.80;2.60;;;;;;;;;;4997689;28;20050;-93
2023/07/15 11:33:45;;;;;;;2.88;2.42;;;;;;;;;;4996003;28;20037;-93
2023/07/15 11:36:18;;;;;;;2.78;2.30;;;;;;;;;;4981085;28;20081;-94
2023/07/15 11:38:47;;;;;;;3.63;2.60;;;;;;;;;;4967563;28;20073;-91
2023/07/15 11:41:15;;;;;;;3.00;2.70;;;;;;;;;;5003040;28;20034;-93
2023/07/15 11:43:50;;;;;;;9.35;3.53;;;;;;;;;;5002027;28;20031;-94
2023/07/15 11:46:17;;;;;;;3.15;2.42;;;;;;;;;;4980303;28;20027;-94
2023/07/15 11:48:46;;;;;;;2.65;2.20;;;;;;;;;;4993698;28;20049;-92
2023/07/15 11:51:22;;;;;;;2.58;2.20;;;;;;;;;;5003575;28;20043;-93
2023/07/15 12:10:54;;;;;;;2.60;2.40;;;;;;;;;;5870104;23;20043;-77
2023/07/15 12:13:22;;;;;;;2.65;2.20;;;;;;;;;;4954670;28;20050;-76
2023/07/15 12:15:49;;;;;;;6.10;2.72;;;;;;;;;;4991685;28;20404;-76
2023/07/15 12:18:16;;;;;;;4.43;2.58;;;;;;;;;;4998349;28;20050;-75
2023/07/15 12:43:29;;;;;;;4.07;2.17;;;;;;;;;;4939761;29;20403;-78
2023/07/15 12:45:57;;;;;;;5.97;2.30;;;;;;;;;;4925714;29;20055;-78
2023/07/15 12:48:24;;;;;;;3.00;2.40;;;;;;;;;;4932310;29;20051;-78
2023/07/15 12:50:54;;;;;;;3.05;2.30;;;;;;;;;;4949076;29;20524;-78
2023/07/15 12:53:28;;;;;;;6.80;3.33;;;;;;;;;;4932118;29;20054;-78
2023/07/15 12:55:56;;;;;;;5.72;2.63;;;;;;;;;;4954723;29;20501;-78
2023/07/15 12:58:26;;;;;;;3.30;2.40;;;;;;;;;;4961176;28;20051;-78
2023/07/15 13:00:56;;;;;;;3.60;2.40;;;;;;;;;;4936995;28;20058;-78
2023/07/15 13:03:25;;;;;;;3.58;2.25;;;;;;;;;;4975564;28;20493;-78
2023/07/15 13:05:53;;;;;;;2.38;2.17;;;;;;;;;;4941094;28;20047;-78
2023/07/15 13:08:22;;;;;;;4.57;2.50;;;;;;;;;;4953550;28;20070;-78
2023/07/15 13:10:50;;;;;;;3.13;2.85;;;;;;;;;;4953637;28;20050;-78
2023/07/15 13:13:17;;;;;;;5.38;2.83;;;;;;;;;;4971617;28;20046;-78
2023/07/15 13:15:45;;;;;;;4.38;3.13;;;;;;;;;;4944649;28;20408;-78
2023/07/15 13:18:14;;;;;;;3.63;2.83;;;;;;;;;;4973913;28;20067;-78
2023/07/15 13:20:43;;;;;;;8.47;3.13;;;;;;;;;;4959744;28;20047;-78
2023/07/15 13:23:11;;;;;;;3.35;2.50;;;;;;;;;;4939266;28;20054;-78
2023/07/15 13:25:38;;;;;;;3.33;3.03;;;;;;;;;;4956148;28;20051;-78
2023/07/15 13:28:06;;;;;;;2.90;2.35;;;;;;;;;;4941885;28;20050;-79
2023/07/15 13:30:33;;;;;;;3.40;3.10;;;;;;;;;;4958020;28;20047;-79
2023/07/15 13:33:00;;;;;;;3.38;2.65;;;;;;;;;;4958756;28;20061;-79
2023/07/15 13:35:29;;;;;;;4.55;4.10;;;;;;;;;;4960646;28;20050;-77
2023/07/15 13:37:57;;;;;;;2.70;2.50;;;;;;;;;;4962986;28;20066;-78
2023/07/15 13:40:24;;;;;;;3.63;2.65;;;;;;;;;;4950318;28;20055;-78
2023/07/15 13:42:51;;;;;;;10.45;3.00;;;;;;;;;;4943851;28;20051;-78
2023/07/15 13:45:19;;;;;;;7.22;2.72;;;;;;;;;;4969989;28;20385;-78
2023/07/15 13:47:50;;;;;;;5.18;2.95;;;;;;;;;;4944682;28;20047;-78
2023/07/15 13:50:21;;;;;;;5.10;2.63;;;;;;;;;;4982768;28;20050;-79
2023/07/15 13:52:52;;;;;;;7.18;2.90;;;;;;;;;;4939303;28;20440;-77
2023/07/15 13:55:20;;;;;;;3.70;2.55;;;;;;;;;;4955830;28;20045;-77
2023/07/15 13:57:49;;;;;;;2.72;2.42;;;;;;;;;;4970171;28;20051;-79
2023/07/15 14:21:24;;;;;;;5.75;3.30;;;;;;;;;;4952581;23;20385;-83
2023/07/15 14:23:52;;;;;;;3.20;2.78;;;;;;;;;;4954975;28;20051;-83
2023/07/15 14:26:19;;;;;;;6.05;3.20;;;;;;;;;;4956957;28;20057;-83
2023/07/15 14:28:46;;;;;;;5.30;3.60;;;;;;;;;;4978643;28;20054;-82
2023/07/15 14:31:13;;;;;;;4.68;3.72;;;;;;;;;;4958250;28;20069;-83
2023/07/15 14:33:44;;;;;;;5.40;3.58;;;;;;;;;;4945120;28;20062;-82
2023/07/15 14:36:11;;;;;;;3.70;3.30;;;;;;;;;;4945404;28;20046;-82
2023/07/15 14:38:40;;;;;;;4.28;3.05;;;;;;;;;;4956312;28;20140;-82
2023/07/15 14:41:08;;;;;;;5.20;4.03;;;;;;;;;;4947093;28;20054;-83
2023/07/15 14:43:37;;;;;;;6.15;3.25;;;;;;;;;;4958375;28;20057;-83
2023/07/15 14:46:09;;;;;;;6.00;3.05;;;;;;;;;;4944849;28;20062;-82
2023/07/15 14:48:40;;;;;;;4.40;3.80;;;;;;;;;;4944122;28;20055;-82
2023/07/15 15:50:23;;;;;;;13.88;4.30;;;;;;;;;;5443138;23;20053;-92
2023/07/15 15:52:53;;;;;;;4.68;3.95;;;;;;;;;;5016681;28;20026;-93
2023/07/15 15:55:20;;;;;;;6.97;4.05;;;;;;;;;;5005032;28;20034;-93
2023/07/15 15:57:53;;;;;;;5.85;4.00;;;;;;;;;;4994368;28;20065;-92
2023/07/15 16:00:31;;;;;;;4.00;3.60;;;;;;;;;;5006890;28;20031;-93
2023/07/15 16:03:01;;;;;;;7.07;4.63;;;;;;;;;;5001881;28;20048;-93
2023/07/15 16:05:30;;;;;;;6.63;3.70;;;;;;;;;;5014074;28;20031;-93
2023/07/15 16:07:59;;;;;;;4.35;3.88;;;;;;;;;;5003149;28;20047;-94
2023/07/15 16:10:29;;;;;;;19.48;13.00;;;;;;;;;;5003576;28;20026;-93
2023/07/15 16:12:59;;;;;;;12.95;9.43;;;;;;;;;;5010673;28;20038;-92
2023/07/15 16:15:29;;;;;;;4.68;3.30;;;;;;;;;;5005164;28;20030;-92
2023/07/15 16:18:01;;;;;;;5.25;4.55;;;;;;;;;;5002825;28;20026;-91
2023/07/15 16:20:32;;;;;;;3.97;3.67;;;;;;;;;;5004891;28;20035;-92
2023/07/15 16:23:01;;;;;;;6.57;3.97;;;;;;;;;;5010355;28;20050;-93
2023/07/15 16:25:30;;;;;;;3.95;3.08;;;;;;;;;;4992085;28;20034;-95
2023/07/15 16:28:02;;;;;;;3.80;3.47;;;;;;;;;;5014857;28;20034;-92
2023/07/15 16:30:30;;;;;;;7.07;4.75;;;;;;;;;;5009071;28;20537;-93
2023/07/15 16:33:01;;;;;;;5.95;3.22;;;;;;;;;;4986036;28;20030;-94
2023/07/15 16:35:31;;;;;;;3.90;3.47;;;;;;;;;;4994650;28;20041;-93
2023/07/15 16:38:01;;;;;;;3.57;3.00;;;;;;;;;;5007414;28;20030;-92
2023/07/15 16:40:29;;;;;;;6.85;6.25;;;;;;;;;;4990902;28;20297;-92
2023/07/15 16:42:56;;;;;;;5.15;3.47;;;;;;;;;;4983468;28;20098;-93
2023/07/15 16:45:24;;;;;;;3.80;3.08;;;;;;;;;;5007467;28;20039;-92
2023/07/15 16:47:52;;;;;;;3.30;2.95;;;;;;;;;;5003114;28;20038;-93
2023/07/15 16:50:22;;;;;;;3.63;3.17;;;;;;;;;;5010622;28;20031;-93
2023/07/15 16:55:40;;;;;;;3.92;3.20;;;;;;;;;;4978542;28;20048;-93
2023/07/15 16:58:08;;;;;;;4.65;2.95;;;;;;;;;;5003192;28;20030;-92
2023/07/15 17:00:35;;;;;;;4.60;3.65;;;;;;;;;;4985167;28;20031;-95
2023/07/15 17:03:03;;;;;;;4.43;2.83;;;;;;;;;;5002194;28;20041;-93
2023/07/15 17:05:33;;;;;;;3.88;3.00;;;;;;;;;;5007703;28;20057;-92
2023/07/15 17:08:02;;;;;;;3.42;2.92;;;;;;;;;;4991955;28;20045;-92
2023/07/15 17:10:30;;;;;;;3.53;3.08;;;;;;;;;;4989996;28;20066;-91
2023/07/15 17:12:57;;;;;;;3.13;2.58;;;;;;;;;;5006094;28;20030;-93
2023/07/15 17:15:25;;;;;;;3.85;2.90;;;;;;;;;;5003608;28;20059;-93
2023/07/15 17:17:52;;;;;;;5.07;3.00;;;;;;;;;;5003054;28;20045;-93
2023/07/15 17:20:20;;;;;;;4.00;3.58;;;;;;;;;;4985012;28;20033;-91
2023/07/15 17:22:47;;;;;;;3.45;3.13;;;;;;;;;;4984960;28;20037;-92
2023/07/15 17:25:16;;;;;;;6.43;4.22;;;;;;;;;;4998373;28;20042;-94
2023/07/15 17:27:48;;;;;;;4.85;3.05;;;;;;;;;;5005383;28;20037;-93
2023/07/15 17:30:17;;;;;;;4.00;3.08;;;;;;;;;;5001437;28;20035;-92
2023/07/15 17:32:54;;;;;;;4.18;3.20;;;;;;;;;;4994320;28;20035;-91
2023/07/15 17:35:22;;;;;;;5.15;3.17;;;;;;;;;;4998755;28;20038;-91
2023/07/15 17:37:52;;;;;;;3.15;2.85;;;;;;;;;;4991545;28;20049;-90
2023/07/15 17:40:27;;;;;;;4.25;3.55;;;;;;;;;;4976917;28;20058;-91
2023/07/15 17:42:54;;;;;;;3.35;2.90;;;;;;;;;;5009644;28;20032;-92
2023/07/15 17:45:27;;;;;;;5.00;3.13;;;;;;;;;;4992863;28;20039;-92
2023/07/15 17:48:17;;;;;;;2.83;2.50;;;;;;;;;;4981194;28;20079;-92
2023/07/15 17:50:48;;;;;;;3.35;2.92;;;;;;;;;;5005051;28;20049;-91
2023/07/15 17:53:19;;;;;;;3.83;3.13;;;;;;;;;;4982269;28;20030;-91
2023/07/15 17:55:51;;;;;;;4.13;3.53;;;;;;;;;;5004070;28;20038;-91
2023/07/15 17:58:27;;;;;;;4.28;3.88;;;;;;;;;;5000368;28;20034;-92
2023/07/15 18:01:01;;;;;;;4.30;3.83;;;;;;;;;;4992954;28;20035;-92
2023/07/15 18:03:35;;;;;;;3.67;2.75;;;;;;;;;;4982344;28;20031;-91
2023/07/15 18:06:13;;;;;;;3.70;3.35;;;;;;;;;;4988689;28;20060;-92
2023/07/15 18:08:46;;;;;;;5.40;3.30;;;;;;;;;;5006248;28;20050;-91
2023/07/15 18:11:20;;;;;;;3.60;3.25;;;;;;;;;;5003867;28;20034;-92
2023/07/15 18:13:53;;;;;;;4.53;3.25;;;;;;;;;;4989881;28;20026;-93
2023/07/15 18:16:20;;;;;;;2.97;2.58;;;;;;;;;;4965256;28;20842;-92
2023/07/15 18:18:48;;;;;;;4.30;3.90;;;;;;;;;;4997490;28;20046;-91
2023/07/15 18:21:16;;;;;;;3.67;3.35;;;;;;;;;;4987018;28;20035;-91
2023/07/15 18:23:47;;;;;;;4.65;3.67;;;;;;;;;;4998761;28;20030;-91
2023/07/15 18:26:17;;;;;;;8.02;3.95;;;;;;;;;;4983012;28;20035;-92
2023/07/15 18:28:47;;;;;;;3.88;3.00;;;;;;;;;;4997668;28;20050;-92
2023/07/15 18:31:18;;;;;;;5.18;3.17;;;;;;;;;;4995006;28;20061;-93
2023/07/15 18:33:57;;;;;;;6.45;3.63;;;;;;;;;;4974488;28;20030;-92
2023/07/15 18:36:28;;;;;;;3.33;3.03;;;;;;;;;;4993743;28;20109;-91
2023/07/15 18:39:00;;;;;;;4.35;3.25;;;;;;;;;;4990335;28;20062;-92
2023/07/15 18:41:29;;;;;;;4.50;3.28;;;;;;;;;;5008877;28;20040;-94
2023/07/15 18:43:58;;;;;;;3.80;3.40;;;;;;;;;;4990280;28;20044;-92
2023/07/15 18:46:27;;;;;;;6.18;4.72;;;;;;;;;;4980754;28;20030;-92
2023/07/15 18:48:58;;;;;;;7.28;3.30;;;;;;;;;;4970771;28;20025;-91
2023/07/15 18:51:29;;;;;;;5.07;4.10;;;;;;;;;;5006569;28;20050;-91
2023/07/15 18:54:04;;;;;;;5.45;3.25;;;;;;;;;;4991744;28;20041;-93
2023/07/15 18:56:35;;;;;;;4.15;3.60;;;;;;;;;;4992309;28;20042;-92
2023/07/15 18:59:06;;;;;;;3.63;3.33;;;;;;;;;;5005692;28;20037;-93
2023/07/15 19:01:37;;;;;;;6.63;4.05;;;;;;;;;;4995377;28;20053;-93
2023/07/15 19:04:04;;;;;;;4.00;3.20;;;;;;;;;;5009176;28;20034;-92
2023/07/15 19:06:33;;;;;;;4.63;4.22;;;;;;;;;;5002967;28;20289;-92
2023/07/15 19:09:05;;;;;;;5.07;3.42;;;;;;;;;;5009956;28;20034;-93
2023/07/15 19:11:37;;;;;;;6.18;3.85;;;;;;;;;;4992163;28;20128;-92
2023/07/15 19:14:06;;;;;;;8.00;3.67;;;;;;;;;;4989593;28;20041;-91
2023/07/15 19:16:38;;;;;;;6.72;3.60;;;;;;;;;;4981045;28;20374;-93
2023/07/15 19:19:11;;;;;;;9.52;3.88;;;;;;;;;;4996818;28;20061;-91
2023/07/15 19:21:41;;;;;;;14.68;4.95;;;;;;;;;;4991161;28;20038;-92
2023/07/15 19:24:10;;;;;;;10.15;4.32;;;;;;;;;;4986000;28;20057;-92
2023/07/15 19:26:38;;;;;;;15.10;4.05;;;;;;;;;;4980229;28;20034;-93
2023/07/15 19:29:16;;;;;;;11.23;4.90;;;;;;;;;;4983865;28;20057;-92